sensor_id;sensor_type;location;lat;lon;timestamp;P1;durP1;ratioP1;P2;durP2;ratioP2
64938;SDS011;51453;47.738;7.420;2023-01-28T00:01:57;17.73;;;10.90;;
64938;SDS011;51453;47.738;7.420;2023-01-28T00:04:23;15.55;;;10.15;;
64938;SDS011;51453;47.738;7.420;2023-01-28T00:06:49;16.92;;;10.05;;
64938;SDS011;51453;47.738;7.420;2023-01-28T00:09:14;19.40;;;10.65;;
64938;SDS011;51453;47.738;7.420;2023-01-28T00:11:40;16.70;;;10.70;;
64938;SDS011;51453;47.738;7.420;2023-01-28T00:14:06;17.83;;;10.63;;
64938;SDS011;51453;47.738;7.420;2023-01-28T00:16:32;15.23;;;10.07;;
64938;SDS011;51453;47.738;7.420;2023-01-28T00:18:58;17.80;;;10.73;;
64938;SDS011;51453;47.738;7.420;2023-01-28T00:21:23;15.95;;;10.43;;
64938;SDS011;51453;47.738;7.420;2023-01-28T00:23:50;16.10;;;10.25;;
64938;SDS011;51453;47.738;7.420;2023-01-28T00:26:18;16.75;;;10.13;;
64938;SDS011;51453;47.738;7.420;2023-01-28T00:28:45;16.40;;;9.68;;
64938;SDS011;51453;47.738;7.420;2023-01-28T00:31:19;15.02;;;9.70;;
64938;SDS011;51453;47.738;7.420;2023-01-28T00:33:46;16.52;;;9.98;;
64938;SDS011;51453;47.738;7.420;2023-01-28T00:36:13;19.58;;;10.35;;
64938;SDS011;51453;47.738;7.420;2023-01-28T00:38:40;16.17;;;10.15;;
64938;SDS011;51453;47.738;7.420;2023-01-28T00:41:07;15.50;;;9.82;;
64938;SDS011;51453;47.738;7.420;2023-01-28T00:43:37;17.02;;;10.00;;
64938;SDS011;51453;47.738;7.420;2023-01-28T00:46:04;15.63;;;10.13;;
64938;SDS011;51453;47.738;7.420;2023-01-28T00:48:34;15.60;;;9.38;;
64938;SDS011;51453;47.738;7.420;2023-01-28T00:51:01;15.98;;;9.60;;
64938;SDS011;51453;47.738;7.420;2023-01-28T00:53:27;14.40;;;8.88;;
64938;SDS011;51453;47.738;7.420;2023-01-28T00:55:53;15.50;;;9.63;;
64938;SDS011;51453;47.738;7.420;2023-01-28T00:58:19;14.73;;;9.13;;
64938;SDS011;51453;47.738;7.420;2023-01-28T01:00:45;16.13;;;9.65;;
64938;SDS011;51453;47.738;7.420;2023-01-28T01:03:11;14.55;;;9.60;;
64938;SDS011;51453;47.738;7.420;2023-01-28T01:05:37;15.35;;;9.48;;
64938;SDS011;51453;47.738;7.420;2023-01-28T01:08:03;15.20;;;9.50;;
64938;SDS011;51453;47.738;7.420;2023-01-28T01:10:28;15.75;;;9.82;;
64938;SDS011;51453;47.738;7.420;2023-01-28T01:12:54;17.10;;;10.45;;
64938;SDS011;51453;47.738;7.420;2023-01-28T01:15:22;15.88;;;9.73;;
64938;SDS011;51453;47.738;7.420;2023-01-28T01:17:48;15.52;;;9.63;;
64938;SDS011;51453;47.738;7.420;2023-01-28T01:20:22;15.90;;;9.93;;
64938;SDS011;51453;47.738;7.420;2023-01-28T01:22:49;15.07;;;10.13;;
64938;SDS011;51453;47.738;7.420;2023-01-28T01:25:16;15.45;;;9.10;;
64938;SDS011;51453;47.738;7.420;2023-01-28T01:27:42;17.48;;;10.27;;
64938;SDS011;51453;47.738;7.420;2023-01-28T01:30:10;16.15;;;9.57;;
64938;SDS011;51453;47.738;7.420;2023-01-28T01:32:36;15.82;;;9.70;;
64938;SDS011;51453;47.738;7.420;2023-01-28T01:35:03;19.92;;;9.93;;
64938;SDS011;51453;47.738;7.420;2023-01-28T01:37:31;18.05;;;9.45;;
64938;SDS011;51453;47.738;7.420;2023-01-28T01:39:56;16.85;;;9.80;;
64938;SDS011;51453;47.738;7.420;2023-01-28T01:42:23;16.98;;;10.27;;
64938;SDS011;51453;47.738;7.420;2023-01-28T01:47:18;16.15;;;9.38;;
64938;SDS011;51453;47.738;7.420;2023-01-28T01:49:48;20.92;;;10.15;;
64938;SDS011;51453;47.738;7.420;2023-01-28T01:52:14;17.95;;;10.48;;
64938;SDS011;51453;47.738;7.420;2023-01-28T01:57:16;18.42;;;10.73;;
64938;SDS011;51453;47.738;7.420;2023-01-28T01:59:49;16.33;;;9.35;;
64938;SDS011;51453;47.738;7.420;2023-01-28T02:02:15;16.92;;;9.73;;
64938;SDS011;51453;47.738;7.420;2023-01-28T02:04:42;16.35;;;10.15;;
64938;SDS011;51453;47.738;7.420;2023-01-28T02:07:11;14.57;;;9.25;;
64938;SDS011;51453;47.738;7.420;2023-01-28T02:09:39;16.02;;;9.48;;
64938;SDS011;51453;47.738;7.420;2023-01-28T02:12:09;16.48;;;9.88;;
64938;SDS011;51453;47.738;7.420;2023-01-28T02:14:41;15.30;;;9.55;;
64938;SDS011;51453;47.738;7.420;2023-01-28T02:17:15;13.88;;;8.90;;
64938;SDS011;51453;47.738;7.420;2023-01-28T02:19:55;16.20;;;9.77;;
64938;SDS011;51453;47.738;7.420;2023-01-28T02:25:36;17.30;;;10.05;;
64938;SDS011;51453;47.738;7.420;2023-01-28T02:31:20;16.90;;;9.20;;
64938;SDS011;51453;47.738;7.420;2023-01-28T02:33:55;18.27;;;8.77;;
64938;SDS011;51453;47.738;7.420;2023-01-28T02:37:03;15.00;;;9.15;;
64938;SDS011;51453;47.738;7.420;2023-01-28T02:39:41;13.32;;;8.25;;
64938;SDS011;51453;47.738;7.420;2023-01-28T02:42:20;16.38;;;8.73;;
64938;SDS011;51453;47.738;7.420;2023-01-28T02:44:48;13.27;;;8.52;;
64938;SDS011;51453;47.738;7.420;2023-01-28T02:47:13;16.50;;;9.15;;
64938;SDS011;51453;47.738;7.420;2023-01-28T02:50:02;14.10;;;8.70;;
64938;SDS011;51453;47.738;7.420;2023-01-28T03:03:27;14.18;;;9.32;;
64938;SDS011;51453;47.738;7.420;2023-01-28T03:06:13;13.07;;;9.00;;
64938;SDS011;51453;47.738;7.420;2023-01-28T03:08:43;15.43;;;9.05;;
64938;SDS011;51453;47.738;7.420;2023-01-28T03:11:35;13.70;;;8.73;;
64938;SDS011;51453;47.738;7.420;2023-01-28T03:14:24;15.80;;;9.52;;
64938;SDS011;51453;47.738;7.420;2023-01-28T03:17:15;15.38;;;9.48;;
64938;SDS011;51453;47.738;7.420;2023-01-28T03:20:07;16.67;;;8.52;;
64938;SDS011;51453;47.738;7.420;2023-01-28T03:22:52;14.55;;;9.10;;
64938;SDS011;51453;47.738;7.420;2023-01-28T03:25:39;14.63;;;9.20;;
64938;SDS011;51453;47.738;7.420;2023-01-28T03:28:27;14.15;;;8.85;;
64938;SDS011;51453;47.738;7.420;2023-01-28T03:31:12;17.52;;;9.50;;
64938;SDS011;51453;47.738;7.420;2023-01-28T03:33:59;13.85;;;9.07;;
64938;SDS011;51453;47.738;7.420;2023-01-28T03:36:46;14.95;;;9.57;;
64938;SDS011;51453;47.738;7.420;2023-01-28T03:39:20;14.82;;;8.90;;
64938;SDS011;51453;47.738;7.420;2023-01-28T03:44:32;15.23;;;8.88;;
64938;SDS011;51453;47.738;7.420;2023-01-28T03:47:17;14.63;;;9.45;;
64938;SDS011;51453;47.738;7.420;2023-01-28T03:49:45;14.15;;;8.95;;
64938;SDS011;51453;47.738;7.420;2023-01-28T03:54:42;15.40;;;8.95;;
64938;SDS011;51453;47.738;7.420;2023-01-28T03:57:11;13.35;;;9.13;;
64938;SDS011;51453;47.738;7.420;2023-01-28T03:59:37;14.48;;;9.30;;
64938;SDS011;51453;47.738;7.420;2023-01-28T04:02:03;16.20;;;9.15;;
64938;SDS011;51453;47.738;7.420;2023-01-28T04:04:29;19.15;;;9.45;;
64938;SDS011;51453;47.738;7.420;2023-01-28T04:06:56;16.35;;;9.32;;
64938;SDS011;51453;47.738;7.420;2023-01-28T04:09:22;12.70;;;8.63;;
64938;SDS011;51453;47.738;7.420;2023-01-28T04:11:48;15.05;;;8.80;;
64938;SDS011;51453;47.738;7.420;2023-01-28T04:14:15;15.55;;;9.32;;
64938;SDS011;51453;47.738;7.420;2023-01-28T04:16:42;15.32;;;9.55;;
64938;SDS011;51453;47.738;7.420;2023-01-28T04:19:08;14.77;;;8.75;;
64938;SDS011;51453;47.738;7.420;2023-01-28T04:21:34;15.77;;;9.23;;
64938;SDS011;51453;47.738;7.420;2023-01-28T04:24:00;16.55;;;9.57;;
64938;SDS011;51453;47.738;7.420;2023-01-28T04:26:26;14.25;;;9.07;;
64938;SDS011;51453;47.738;7.420;2023-01-28T04:28:52;14.70;;;8.63;;
64938;SDS011;51453;47.738;7.420;2023-01-28T04:31:18;16.55;;;8.80;;
64938;SDS011;51453;47.738;7.420;2023-01-28T04:33:44;16.35;;;8.55;;
64938;SDS011;51453;47.738;7.420;2023-01-28T04:36:09;14.15;;;8.20;;
64938;SDS011;51453;47.738;7.420;2023-01-28T04:38:35;15.40;;;8.65;;
64938;SDS011;51453;47.738;7.420;2023-01-28T04:41:01;13.85;;;7.88;;
64938;SDS011;51453;47.738;7.420;2023-01-28T04:43:26;12.40;;;7.65;;
64938;SDS011;51453;47.738;7.420;2023-01-28T04:45:52;12.80;;;7.47;;
64938;SDS011;51453;47.738;7.420;2023-01-28T04:48:18;16.02;;;7.25;;
64938;SDS011;51453;47.738;7.420;2023-01-28T04:50:43;14.05;;;7.97;;
64938;SDS011;51453;47.738;7.420;2023-01-28T04:53:10;11.50;;;7.03;;
64938;SDS011;51453;47.738;7.420;2023-01-28T04:55:36;12.10;;;7.00;;
64938;SDS011;51453;47.738;7.420;2023-01-28T04:58:02;13.05;;;7.60;;
64938;SDS011;51453;47.738;7.420;2023-01-28T05:00:27;13.75;;;7.15;;
64938;SDS011;51453;47.738;7.420;2023-01-28T05:02:53;13.27;;;8.05;;
64938;SDS011;51453;47.738;7.420;2023-01-28T05:05:19;11.93;;;6.90;;
64938;SDS011;51453;47.738;7.420;2023-01-28T05:07:55;12.70;;;7.22;;
64938;SDS011;51453;47.738;7.420;2023-01-28T05:10:21;13.40;;;7.05;;
64938;SDS011;51453;47.738;7.420;2023-01-28T05:12:48;13.88;;;7.65;;
64938;SDS011;51453;47.738;7.420;2023-01-28T05:15:14;9.85;;;6.60;;
64938;SDS011;51453;47.738;7.420;2023-01-28T05:17:41;9.85;;;6.45;;
64938;SDS011;51453;47.738;7.420;2023-01-28T05:20:07;11.85;;;7.05;;
64938;SDS011;51453;47.738;7.420;2023-01-28T05:22:34;11.07;;;6.00;;
64938;SDS011;51453;47.738;7.420;2023-01-28T05:24:59;10.10;;;6.55;;
64938;SDS011;51453;47.738;7.420;2023-01-28T05:27:27;13.50;;;6.65;;
64938;SDS011;51453;47.738;7.420;2023-01-28T05:29:53;8.35;;;5.90;;
64938;SDS011;51453;47.738;7.420;2023-01-28T05:32:19;9.40;;;6.60;;
64938;SDS011;51453;47.738;7.420;2023-01-28T05:34:44;11.25;;;6.75;;
64938;SDS011;51453;47.738;7.420;2023-01-28T05:37:10;9.88;;;6.70;;
64938;SDS011;51453;47.738;7.420;2023-01-28T05:39:36;9.10;;;5.95;;
64938;SDS011;51453;47.738;7.420;2023-01-28T05:42:01;10.60;;;6.65;;
64938;SDS011;51453;47.738;7.420;2023-01-28T05:44:27;9.20;;;6.32;;
64938;SDS011;51453;47.738;7.420;2023-01-28T05:46:53;8.48;;;5.88;;
64938;SDS011;51453;47.738;7.420;2023-01-28T05:49:18;12.57;;;6.25;;
64938;SDS011;51453;47.738;7.420;2023-01-28T05:51:44;10.85;;;6.07;;
64938;SDS011;51453;47.738;7.420;2023-01-28T05:54:11;8.90;;;5.78;;
64938;SDS011;51453;47.738;7.420;2023-01-28T05:56:37;9.02;;;6.00;;
64938;SDS011;51453;47.738;7.420;2023-01-28T05:59:04;9.40;;;6.22;;
64938;SDS011;51453;47.738;7.420;2023-01-28T06:01:30;10.25;;;6.07;;
64938;SDS011;51453;47.738;7.420;2023-01-28T06:03:56;9.15;;;5.93;;
64938;SDS011;51453;47.738;7.420;2023-01-28T06:06:23;10.77;;;5.85;;
64938;SDS011;51453;47.738;7.420;2023-01-28T06:08:49;10.27;;;6.47;;
64938;SDS011;51453;47.738;7.420;2023-01-28T06:11:14;8.98;;;5.93;;
64938;SDS011;51453;47.738;7.420;2023-01-28T06:13:40;8.57;;;5.68;;
64938;SDS011;51453;47.738;7.420;2023-01-28T06:16:06;9.52;;;5.38;;
64938;SDS011;51453;47.738;7.420;2023-01-28T06:18:32;9.57;;;5.75;;
64938;SDS011;51453;47.738;7.420;2023-01-28T06:20:58;9.05;;;5.43;;
64938;SDS011;51453;47.738;7.420;2023-01-28T06:23:24;7.90;;;5.30;;
64938;SDS011;51453;47.738;7.420;2023-01-28T06:25:53;9.50;;;6.10;;
64938;SDS011;51453;47.738;7.420;2023-01-28T06:28:19;6.30;;;4.30;;
64938;SDS011;51453;47.738;7.420;2023-01-28T06:30:48;9.45;;;6.28;;
64938;SDS011;51453;47.738;7.420;2023-01-28T06:33:15;8.68;;;5.43;;
64938;SDS011;51453;47.738;7.420;2023-01-28T06:35:42;9.23;;;5.97;;
64938;SDS011;51453;47.738;7.420;2023-01-28T06:38:08;9.23;;;5.93;;
64938;SDS011;51453;47.738;7.420;2023-01-28T06:40:34;10.43;;;6.22;;
64938;SDS011;51453;47.738;7.420;2023-01-28T06:43:00;9.93;;;5.93;;
64938;SDS011;51453;47.738;7.420;2023-01-28T06:45:26;10.15;;;6.18;;
64938;SDS011;51453;47.738;7.420;2023-01-28T06:47:52;8.63;;;5.70;;
64938;SDS011;51453;47.738;7.420;2023-01-28T06:50:17;9.35;;;5.95;;
64938;SDS011;51453;47.738;7.420;2023-01-28T06:52:43;9.23;;;5.55;;
64938;SDS011;51453;47.738;7.420;2023-01-28T06:55:09;9.73;;;5.93;;
64938;SDS011;51453;47.738;7.420;2023-01-28T06:57:36;9.10;;;5.80;;
64938;SDS011;51453;47.738;7.420;2023-01-28T07:00:04;13.43;;;6.80;;
64938;SDS011;51453;47.738;7.420;2023-01-28T07:02:31;14.82;;;6.38;;
64938;SDS011;51453;47.738;7.420;2023-01-28T07:04:56;13.77;;;7.38;;
64938;SDS011;51453;47.738;7.420;2023-01-28T07:07:22;13.38;;;6.93;;
64938;SDS011;51453;47.738;7.420;2023-01-28T07:09:47;14.57;;;7.22;;
64938;SDS011;51453;47.738;7.420;2023-01-28T07:12:13;14.38;;;6.70;;
64938;SDS011;51453;47.738;7.420;2023-01-28T07:14:39;10.68;;;6.15;;
64938;SDS011;51453;47.738;7.420;2023-01-28T07:17:05;9.63;;;5.90;;
64938;SDS011;51453;47.738;7.420;2023-01-28T07:19:30;8.55;;;5.80;;
64938;SDS011;51453;47.738;7.420;2023-01-28T07:21:56;8.82;;;5.75;;
64938;SDS011;51453;47.738;7.420;2023-01-28T07:24:24;9.57;;;5.50;;
64938;SDS011;51453;47.738;7.420;2023-01-28T07:26:50;10.38;;;5.85;;
64938;SDS011;51453;47.738;7.420;2023-01-28T07:29:16;8.13;;;5.28;;
64938;SDS011;51453;47.738;7.420;2023-01-28T07:31:42;9.38;;;6.05;;
64938;SDS011;51453;47.738;7.420;2023-01-28T07:34:08;11.15;;;5.68;;
64938;SDS011;51453;47.738;7.420;2023-01-28T07:36:34;7.72;;;5.43;;
64938;SDS011;51453;47.738;7.420;2023-01-28T07:38:59;7.47;;;5.18;;
64938;SDS011;51453;47.738;7.420;2023-01-28T07:41:25;13.82;;;5.78;;
64938;SDS011;51453;47.738;7.420;2023-01-28T07:43:52;11.27;;;6.40;;
64938;SDS011;51453;47.738;7.420;2023-01-28T07:46:17;13.25;;;6.45;;
64938;SDS011;51453;47.738;7.420;2023-01-28T07:48:43;12.38;;;6.00;;
64938;SDS011;51453;47.738;7.420;2023-01-28T07:51:10;12.32;;;6.35;;
64938;SDS011;51453;47.738;7.420;2023-01-28T07:53:36;12.50;;;6.45;;
64938;SDS011;51453;47.738;7.420;2023-01-28T07:56:01;8.25;;;5.53;;
64938;SDS011;51453;47.738;7.420;2023-01-28T07:58:28;8.27;;;5.43;;
64938;SDS011;51453;47.738;7.420;2023-01-28T08:00:55;8.93;;;5.40;;
64938;SDS011;51453;47.738;7.420;2023-01-28T08:03:23;8.35;;;5.50;;
64938;SDS011;51453;47.738;7.420;2023-01-28T08:05:49;7.10;;;5.35;;
64938;SDS011;51453;47.738;7.420;2023-01-28T08:08:17;8.57;;;5.15;;
64938;SDS011;51453;47.738;7.420;2023-01-28T08:10:43;7.50;;;5.38;;
64938;SDS011;51453;47.738;7.420;2023-01-28T08:13:09;8.63;;;5.60;;
64938;SDS011;51453;47.738;7.420;2023-01-28T08:15:36;7.18;;;5.20;;
64938;SDS011;51453;47.738;7.420;2023-01-28T08:18:03;9.05;;;5.35;;
64938;SDS011;51453;47.738;7.420;2023-01-28T08:20:29;11.60;;;4.82;;
64938;SDS011;51453;47.738;7.420;2023-01-28T08:23:08;7.93;;;5.35;;
64938;SDS011;51453;47.738;7.420;2023-01-28T08:25:36;6.93;;;4.95;;
64938;SDS011;51453;47.738;7.420;2023-01-28T08:28:03;7.40;;;5.18;;
64938;SDS011;51453;47.738;7.420;2023-01-28T08:30:29;9.50;;;5.57;;
64938;SDS011;51453;47.738;7.420;2023-01-28T08:32:56;8.02;;;5.28;;
64938;SDS011;51453;47.738;7.420;2023-01-28T08:35:23;7.60;;;4.82;;
64938;SDS011;51453;47.738;7.420;2023-01-28T08:37:49;8.00;;;4.93;;
64938;SDS011;51453;47.738;7.420;2023-01-28T08:40:15;9.13;;;5.47;;
64938;SDS011;51453;47.738;7.420;2023-01-28T08:42:50;7.00;;;4.65;;
64938;SDS011;51453;47.738;7.420;2023-01-28T08:45:17;6.95;;;4.70;;
64938;SDS011;51453;47.738;7.420;2023-01-28T08:50:16;9.40;;;5.13;;
64938;SDS011;51453;47.738;7.420;2023-01-28T08:52:42;7.45;;;4.80;;
64938;SDS011;51453;47.738;7.420;2023-01-28T08:55:09;6.82;;;4.68;;
64938;SDS011;51453;47.738;7.420;2023-01-28T08:57:35;8.20;;;4.85;;
64938;SDS011;51453;47.738;7.420;2023-01-28T09:00:01;5.47;;;4.20;;
64938;SDS011;51453;47.738;7.420;2023-01-28T09:02:27;8.00;;;4.80;;
64938;SDS011;51453;47.738;7.420;2023-01-28T09:04:53;8.95;;;5.20;;
64938;SDS011;51453;47.738;7.420;2023-01-28T09:07:18;8.60;;;5.18;;
64938;SDS011;51453;47.738;7.420;2023-01-28T09:09:44;7.50;;;4.82;;
64938;SDS011;51453;47.738;7.420;2023-01-28T09:12:10;7.32;;;5.13;;
64938;SDS011;51453;47.738;7.420;2023-01-28T09:14:35;7.32;;;5.20;;
64938;SDS011;51453;47.738;7.420;2023-01-28T09:17:03;7.47;;;5.13;;
64938;SDS011;51453;47.738;7.420;2023-01-28T09:19:29;8.65;;;5.45;;
64938;SDS011;51453;47.738;7.420;2023-01-28T09:21:54;8.15;;;4.57;;
64938;SDS011;51453;47.738;7.420;2023-01-28T09:24:20;7.57;;;4.68;;
64938;SDS011;51453;47.738;7.420;2023-01-28T09:26:49;7.88;;;4.70;;
64938;SDS011;51453;47.738;7.420;2023-01-28T09:29:15;8.70;;;5.05;;
64938;SDS011;51453;47.738;7.420;2023-01-28T09:31:41;7.50;;;4.90;;
64938;SDS011;51453;47.738;7.420;2023-01-28T09:34:08;10.57;;;4.90;;
64938;SDS011;51453;47.738;7.420;2023-01-28T09:36:34;5.82;;;4.35;;
64938;SDS011;51453;47.738;7.420;2023-01-28T09:39:00;7.35;;;4.45;;
64938;SDS011;51453;47.738;7.420;2023-01-28T09:41:27;6.60;;;4.80;;
64938;SDS011;51453;47.738;7.420;2023-01-28T09:46:33;5.82;;;4.43;;
64938;SDS011;51453;47.738;7.420;2023-01-28T09:49:02;6.53;;;4.35;;
64938;SDS011;51453;47.738;7.420;2023-01-28T09:51:58;6.65;;;4.63;;
64938;SDS011;51453;47.738;7.420;2023-01-28T09:56:50;8.18;;;4.93;;
64938;SDS011;51453;47.738;7.420;2023-01-28T09:59:33;6.97;;;5.07;;
64938;SDS011;51453;47.738;7.420;2023-01-28T10:05:12;7.90;;;4.97;;
64938;SDS011;51453;47.738;7.420;2023-01-28T10:07:42;6.40;;;4.47;;
64938;SDS011;51453;47.738;7.420;2023-01-28T10:16:08;6.45;;;4.57;;
64938;SDS011;51453;47.738;7.420;2023-01-28T10:18:57;8.43;;;5.05;;
64938;SDS011;51453;47.738;7.420;2023-01-28T10:21:40;8.43;;;5.30;;
64938;SDS011;51453;47.738;7.420;2023-01-28T10:24:16;8.15;;;5.22;;
64938;SDS011;51453;47.738;7.420;2023-01-28T10:26:59;8.13;;;5.35;;
64938;SDS011;51453;47.738;7.420;2023-01-28T10:29:26;7.53;;;5.57;;
64938;SDS011;51453;47.738;7.420;2023-01-28T10:32:04;7.07;;;4.68;;
64938;SDS011;51453;47.738;7.420;2023-01-28T10:34:40;8.18;;;5.70;;
64938;SDS011;51453;47.738;7.420;2023-01-28T10:37:05;8.50;;;5.93;;
64938;SDS011;51453;47.738;7.420;2023-01-28T10:39:34;12.63;;;6.10;;
64938;SDS011;51453;47.738;7.420;2023-01-28T10:41:59;7.95;;;5.28;;
64938;SDS011;51453;47.738;7.420;2023-01-28T10:44:30;7.90;;;5.20;;
64938;SDS011;51453;47.738;7.420;2023-01-28T10:47:01;10.18;;;6.00;;
64938;SDS011;51453;47.738;7.420;2023-01-28T10:49:44;8.35;;;5.68;;
64938;SDS011;51453;47.738;7.420;2023-01-28T10:52:15;8.15;;;5.43;;
64938;SDS011;51453;47.738;7.420;2023-01-28T10:54:43;8.65;;;5.82;;
64938;SDS011;51453;47.738;7.420;2023-01-28T10:57:10;7.97;;;5.47;;
64938;SDS011;51453;47.738;7.420;2023-01-28T10:59:40;7.82;;;5.70;;
64938;SDS011;51453;47.738;7.420;2023-01-28T11:02:40;10.15;;;5.57;;
64938;SDS011;51453;47.738;7.420;2023-01-28T11:07:29;8.65;;;5.45;;
64938;SDS011;51453;47.738;7.420;2023-01-28T11:09:55;9.50;;;5.32;;
64938;SDS011;51453;47.738;7.420;2023-01-28T11:14:50;9.27;;;5.63;;
64938;SDS011;51453;47.738;7.420;2023-01-28T11:17:21;7.95;;;4.93;;
64938;SDS011;51453;47.738;7.420;2023-01-28T11:19:49;7.50;;;4.75;;
64938;SDS011;51453;47.738;7.420;2023-01-28T11:22:23;5.72;;;4.03;;
64938;SDS011;51453;47.738;7.420;2023-01-28T11:24:53;5.00;;;3.40;;
64938;SDS011;51453;47.738;7.420;2023-01-28T11:27:20;3.97;;;2.90;;
64938;SDS011;51453;47.738;7.420;2023-01-28T11:29:51;4.68;;;3.40;;
64938;SDS011;51453;47.738;7.420;2023-01-28T11:32:20;5.57;;;2.92;;
64938;SDS011;51453;47.738;7.420;2023-01-28T11:34:51;3.83;;;2.72;;
64938;SDS011;51453;47.738;7.420;2023-01-28T11:37:22;3.80;;;2.83;;
64938;SDS011;51453;47.738;7.420;2023-01-28T11:42:28;4.03;;;3.00;;
64938;SDS011;51453;47.738;7.420;2023-01-28T11:44:55;4.75;;;2.88;;
64938;SDS011;51453;47.738;7.420;2023-01-28T11:55:33;6.93;;;2.80;;
64938;SDS011;51453;47.738;7.420;2023-01-28T12:00:40;5.07;;;3.10;;
64938;SDS011;51453;47.738;7.420;2023-01-28T12:06:34;3.83;;;2.90;;
64938;SDS011;51453;47.738;7.420;2023-01-28T12:12:15;4.00;;;2.78;;
64938;SDS011;51453;47.738;7.420;2023-01-28T12:15:20;4.72;;;3.17;;
64938;SDS011;51453;47.738;7.420;2023-01-28T12:18:18;5.53;;;3.30;;
64938;SDS011;51453;47.738;7.420;2023-01-28T12:21:37;4.00;;;3.15;;
64938;SDS011;51453;47.738;7.420;2023-01-28T12:26:57;3.20;;;2.72;;
64938;SDS011;51453;47.738;7.420;2023-01-28T12:32:27;4.75;;;3.40;;
64938;SDS011;51453;47.738;7.420;2023-01-28T12:35:16;5.88;;;2.90;;
64938;SDS011;51453;47.738;7.420;2023-01-28T12:43:37;4.30;;;3.20;;
64938;SDS011;51453;47.738;7.420;2023-01-28T12:51:15;4.85;;;3.15;;
64938;SDS011;51453;47.738;7.420;2023-01-28T12:53:49;4.78;;;3.20;;
64938;SDS011;51453;47.738;7.420;2023-01-28T12:56:22;6.50;;;3.10;;
64938;SDS011;51453;47.738;7.420;2023-01-28T13:01:39;4.57;;;3.35;;
64938;SDS011;51453;47.738;7.420;2023-01-28T13:04:37;5.10;;;3.78;;
64938;SDS011;51453;47.738;7.420;2023-01-28T13:07:22;5.45;;;3.65;;
64938;SDS011;51453;47.738;7.420;2023-01-28T13:10:16;5.63;;;4.18;;
64938;SDS011;51453;47.738;7.420;2023-01-28T13:12:39;7.22;;;4.40;;
64938;SDS011;51453;47.738;7.420;2023-01-28T13:15:09;9.40;;;4.60;;
64938;SDS011;51453;47.738;7.420;2023-01-28T13:17:37;7.80;;;4.20;;
64938;SDS011;51453;47.738;7.420;2023-01-28T13:20:12;7.07;;;4.53;;
64938;SDS011;51453;47.738;7.420;2023-01-28T13:22:39;10.75;;;4.80;;
64938;SDS011;51453;47.738;7.420;2023-01-28T13:28:04;6.18;;;4.10;;
64938;SDS011;51453;47.738;7.420;2023-01-28T13:30:31;7.20;;;4.70;;
64938;SDS011;51453;47.738;7.420;2023-01-28T13:33:31;5.72;;;4.47;;
64938;SDS011;51453;47.738;7.420;2023-01-28T13:36:00;6.05;;;4.43;;
64938;SDS011;51453;47.738;7.420;2023-01-28T13:38:31;6.70;;;4.28;;
64938;SDS011;51453;47.738;7.420;2023-01-28T13:40:58;6.18;;;4.60;;
64938;SDS011;51453;47.738;7.420;2023-01-28T13:45:57;7.25;;;4.65;;
64938;SDS011;51453;47.738;7.420;2023-01-28T13:48:33;5.70;;;4.28;;
64938;SDS011;51453;47.738;7.420;2023-01-28T13:51:03;6.40;;;4.43;;
64938;SDS011;51453;47.738;7.420;2023-01-28T13:53:43;6.40;;;4.35;;
64938;SDS011;51453;47.738;7.420;2023-01-28T13:56:17;7.78;;;4.50;;
64938;SDS011;51453;47.738;7.420;2023-01-28T13:58:56;7.00;;;4.70;;
64938;SDS011;51453;47.738;7.420;2023-01-28T14:07:17;6.97;;;4.80;;
64938;SDS011;51453;47.738;7.420;2023-01-28T14:12:37;9.05;;;5.78;;
64938;SDS011;51453;47.738;7.420;2023-01-28T14:15:30;8.02;;;5.60;;
64938;SDS011;51453;47.738;7.420;2023-01-28T14:18:05;11.48;;;6.40;;
64938;SDS011;51453;47.738;7.420;2023-01-28T14:20:46;8.75;;;5.55;;
64938;SDS011;51453;47.738;7.420;2023-01-28T14:23:17;8.80;;;6.00;;
64938;SDS011;51453;47.738;7.420;2023-01-28T14:28:52;10.95;;;6.70;;
64938;SDS011;51453;47.738;7.420;2023-01-28T14:31:30;12.90;;;6.40;;
64938;SDS011;51453;47.738;7.420;2023-01-28T14:33:58;9.32;;;6.53;;
64938;SDS011;51453;47.738;7.420;2023-01-28T14:36:30;9.00;;;6.43;;
64938;SDS011;51453;47.738;7.420;2023-01-28T14:38:59;9.65;;;6.40;;
64938;SDS011;51453;47.738;7.420;2023-01-28T14:41:26;12.02;;;6.93;;
64938;SDS011;51453;47.738;7.420;2023-01-28T14:43:53;13.73;;;7.13;;
64938;SDS011;51453;47.738;7.420;2023-01-28T14:51:35;11.20;;;7.43;;
64938;SDS011;51453;47.738;7.420;2023-01-28T15:01:59;12.65;;;7.55;;
64938;SDS011;51453;47.738;7.420;2023-01-28T15:04:28;13.00;;;8.35;;
64938;SDS011;51453;47.738;7.420;2023-01-28T15:06:56;12.30;;;7.63;;
64938;SDS011;51453;47.738;7.420;2023-01-28T15:09:25;12.52;;;8.05;;
64938;SDS011;51453;47.738;7.420;2023-01-28T15:11:53;12.93;;;8.20;;
64938;SDS011;51453;47.738;7.420;2023-01-28T15:16:50;16.70;;;8.32;;
64938;SDS011;51453;47.738;7.420;2023-01-28T15:19:16;14.10;;;8.23;;
64938;SDS011;51453;47.738;7.420;2023-01-28T15:21:52;12.40;;;7.53;;
64938;SDS011;51453;47.738;7.420;2023-01-28T15:24:23;13.23;;;8.30;;
64938;SDS011;51453;47.738;7.420;2023-01-28T15:26:49;14.68;;;8.45;;
64938;SDS011;51453;47.738;7.420;2023-01-28T15:29:22;17.50;;;9.48;;
64938;SDS011;51453;47.738;7.420;2023-01-28T15:31:49;13.73;;;8.63;;
64938;SDS011;51453;47.738;7.420;2023-01-28T15:34:19;14.02;;;9.07;;
64938;SDS011;51453;47.738;7.420;2023-01-28T15:36:46;18.55;;;9.07;;
64938;SDS011;51453;47.738;7.420;2023-01-28T15:39:14;14.93;;;9.10;;
64938;SDS011;51453;47.738;7.420;2023-01-28T15:41:46;17.05;;;9.40;;
64938;SDS011;51453;47.738;7.420;2023-01-28T15:44:31;15.05;;;9.52;;
64938;SDS011;51453;47.738;7.420;2023-01-28T15:50:06;16.13;;;9.15;;
64938;SDS011;51453;47.738;7.420;2023-01-28T15:52:39;16.08;;;9.70;;
64938;SDS011;51453;47.738;7.420;2023-01-28T15:55:26;17.00;;;9.63;;
64938;SDS011;51453;47.738;7.420;2023-01-28T16:00:42;18.88;;;9.93;;
64938;SDS011;51453;47.738;7.420;2023-01-28T16:03:09;15.82;;;9.43;;
64938;SDS011;51453;47.738;7.420;2023-01-28T16:05:42;14.93;;;9.13;;
64938;SDS011;51453;47.738;7.420;2023-01-28T16:08:44;19.58;;;10.38;;
64938;SDS011;51453;47.738;7.420;2023-01-28T16:11:11;18.60;;;11.10;;
64938;SDS011;51453;47.738;7.420;2023-01-28T16:13:45;19.30;;;11.05;;
64938;SDS011;51453;47.738;7.420;2023-01-28T16:16:10;16.58;;;10.55;;
64938;SDS011;51453;47.738;7.420;2023-01-28T16:21:17;19.85;;;10.10;;
64938;SDS011;51453;47.738;7.420;2023-01-28T16:23:56;17.40;;;10.65;;
64938;SDS011;51453;47.738;7.420;2023-01-28T16:26:31;18.60;;;10.93;;
64938;SDS011;51453;47.738;7.420;2023-01-28T16:28:59;18.90;;;10.73;;
64938;SDS011;51453;47.738;7.420;2023-01-28T16:31:39;17.58;;;10.70;;
64938;SDS011;51453;47.738;7.420;2023-01-28T16:34:06;15.82;;;10.20;;
64938;SDS011;51453;47.738;7.420;2023-01-28T16:36:34;17.83;;;10.82;;
64938;SDS011;51453;47.738;7.420;2023-01-28T16:39:00;19.30;;;11.68;;
64938;SDS011;51453;47.738;7.420;2023-01-28T16:41:26;16.40;;;10.00;;
64938;SDS011;51453;47.738;7.420;2023-01-28T16:43:53;18.65;;;10.95;;
64938;SDS011;51453;47.738;7.420;2023-01-28T16:46:19;24.27;;;11.23;;
64938;SDS011;51453;47.738;7.420;2023-01-28T16:48:45;16.15;;;10.40;;
64938;SDS011;51453;47.738;7.420;2023-01-28T16:51:14;16.70;;;10.13;;
64938;SDS011;51453;47.738;7.420;2023-01-28T16:53:42;15.63;;;9.50;;
64938;SDS011;51453;47.738;7.420;2023-01-28T16:56:17;16.85;;;9.80;;
64938;SDS011;51453;47.738;7.420;2023-01-28T16:58:45;16.42;;;9.60;;
64938;SDS011;51453;47.738;7.420;2023-01-28T17:01:11;16.08;;;9.43;;
64938;SDS011;51453;47.738;7.420;2023-01-28T17:03:37;17.30;;;10.15;;
64938;SDS011;51453;47.738;7.420;2023-01-28T17:06:04;15.23;;;9.48;;